Time;durP1;ratioP1;P1;durP2;ratioP2;P2;SDS_P1;SDS_P2;PMS_P1;PMS_P2;Temp;Humidity;BMP_temperature;BMP_pressure;BME280_temperature;BME280_humidity;BME280_pressure;Samples;Min_cycle;Max_cycle;Signal;HPM_P1;HPM_P2
2022/02/23 00:01:45;;;;;;;13.80;6.63;;;3.10;99.90;;;;;;5047833;28;20523;-63
2022/02/23 00:04:12;;;;;;;13.30;6.97;;;3.10;99.90;;;;;;5060598;28;20613;-63
2022/02/23 00:06:39;;;;;;;12.67;6.53;;;3.00;99.90;;;;;;5048793;28;20195;-65
2022/02/23 00:09:06;;;;;;;12.63;6.60;;;3.00;99.90;;;;;;5054691;28;20201;-64
2022/02/23 00:11:33;;;;;;;15.73;6.37;;;3.00;99.90;;;;;;5061076;28;20237;-64
2022/02/23 00:14:00;;;;;;;11.53;6.70;;;3.00;99.90;;;;;;5059571;28;20263;-64
2022/02/23 00:16:28;;;;;;;13.73;7.00;;;2.90;99.90;;;;;;5055723;28;20241;-64
2022/02/23 00:18:55;;;;;;;15.27;6.90;;;3.00;99.90;;;;;;5061105;28;20352;-65
2022/02/23 00:21:22;;;;;;;12.07;6.70;;;2.90;99.90;;;;;;5063029;28;20229;-65
2022/02/23 00:23:49;;;;;;;13.27;7.73;;;2.90;99.90;;;;;;5058836;28;20785;-65
2022/02/23 00:26:15;;;;;;;16.33;7.43;;;2.90;99.90;;;;;;5064474;28;20232;-64
2022/02/23 00:28:42;;;;;;;14.83;7.23;;;2.90;99.90;;;;;;5063066;28;20201;-64
2022/02/23 00:31:09;;;;;;;12.03;6.87;;;2.80;99.90;;;;;;5062048;28;20214;-64
2022/02/23 00:33:37;;;;;;;13.63;7.47;;;2.80;99.90;;;;;;5051405;28;20256;-65
2022/02/23 00:36:04;;;;;;;15.70;7.37;;;2.80;99.90;;;;;;5055980;28;20229;-65
2022/02/23 00:38:31;;;;;;;17.07;7.60;;;2.80;99.90;;;;;;5054688;28;20214;-63
2022/02/23 00:40:58;;;;;;;16.87;8.57;;;2.90;99.90;;;;;;5053911;28;20294;-64
2022/02/23 00:43:26;;;;;;;13.67;7.07;;;2.90;99.90;;;;;;5048084;28;20198;-64
2022/02/23 00:45:53;;;;;;;15.27;7.17;;;2.90;99.90;;;;;;5054478;28;20263;-64
2022/02/23 00:48:20;;;;;;;13.93;7.43;;;2.90;99.90;;;;;;5054355;28;20214;-64
2022/02/23 00:50:48;;;;;;;15.17;7.07;;;2.90;99.90;;;;;;5054996;28;20206;-65
2022/02/23 00:53:15;;;;;;;15.93;6.70;;;2.90;99.90;;;;;;5069370;28;20235;-65
2022/02/23 00:55:42;;;;;;;14.13;7.43;;;2.90;99.90;;;;;;5053455;28;20706;-64
2022/02/23 00:58:09;;;;;;;18.30;7.87;;;2.90;99.90;;;;;;5059095;28;20236;-64
2022/02/23 01:00:36;;;;;;;17.67;7.80;;;2.90;99.90;;;;;;5048764;28;20210;-65
2022/02/23 01:03:03;;;;;;;17.70;7.10;;;2.90;99.90;;;;;;5049906;28;20313;-65
2022/02/23 01:05:29;;;;;;;15.20;6.70;;;2.90;99.90;;;;;;5063277;28;20235;-67
2022/02/23 01:07:58;;;;;;;12.80;6.83;;;2.90;99.90;;;;;;5055772;28;20214;-67
2022/02/23 01:10:24;;;;;;;19.93;6.73;;;2.90;99.90;;;;;;5045557;28;20205;-64
2022/02/23 01:12:52;;;;;;;11.60;6.07;;;2.90;99.90;;;;;;5056816;28;20640;-65
2022/02/23 01:15:19;;;;;;;12.50;6.37;;;2.80;99.90;;;;;;5060251;28;20235;-65
2022/02/23 01:17:46;;;;;;;12.23;6.27;;;2.80;99.90;;;;;;5052552;28;20494;-65
2022/02/23 01:20:13;;;;;;;12.23;5.77;;;2.80;99.90;;;;;;5065967;28;20209;-65
2022/02/23 01:22:40;;;;;;;12.30;6.43;;;2.90;99.90;;;;;;5053070;28;20301;-64
2022/02/23 01:25:09;;;;;;;17.20;6.87;;;2.90;99.90;;;;;;5059696;28;20209;-64
2022/02/23 01:27:37;;;;;;;14.10;6.67;;;2.90;99.90;;;;;;5066014;28;20659;-64
2022/02/23 01:30:04;;;;;;;14.43;6.40;;;2.80;99.90;;;;;;5064382;28;20721;-65
2022/02/23 01:32:31;;;;;;;13.53;6.13;;;2.80;99.90;;;;;;5049175;28;20202;-65
2022/02/23 01:34:58;;;;;;;11.03;6.30;;;2.80;99.90;;;;;;5047064;28;20222;-63
2022/02/23 01:37:25;;;;;;;13.37;6.07;;;2.80;99.90;;;;;;5050755;28;20212;-63
2022/02/23 01:39:52;;;;;;;14.93;6.50;;;2.80;99.90;;;;;;5053791;28;20245;-65
2022/02/23 01:42:20;;;;;;;16.20;7.13;;;2.70;99.90;;;;;;5056769;28;20558;-65
2022/02/23 01:44:47;;;;;;;14.43;6.33;;;2.80;99.90;;;;;;5063376;28;20197;-64
2022/02/23 01:47:14;;;;;;;13.47;5.93;;;2.80;99.90;;;;;;5061179;28;20210;-65
2022/02/23 01:49:41;;;;;;;11.50;6.23;;;2.70;99.90;;;;;;5055570;28;20206;-64
2022/02/23 01:52:07;;;;;;;14.00;6.43;;;2.80;99.90;;;;;;5054696;28;20213;-65
2022/02/23 01:54:34;;;;;;;14.53;6.10;;;2.90;99.90;;;;;;5046667;28;20226;-64
2022/02/23 01:57:01;;;;;;;12.40;6.30;;;2.80;99.90;;;;;;5066829;28;20264;-65
2022/02/23 01:59:29;;;;;;;17.70;5.80;;;2.80;99.90;;;;;;5060001;28;20280;-64
2022/02/23 02:01:56;;;;;;;12.93;5.80;;;2.90;99.90;;;;;;5051206;28;20224;-67
2022/02/23 02:04:23;;;;;;;10.97;6.30;;;2.90;99.90;;;;;;5055637;28;20212;-66
2022/02/23 02:06:50;;;;;;;13.63;7.00;;;2.90;99.90;;;;;;5062945;28;20570;-66
2022/02/23 02:09:17;;;;;;;11.37;5.60;;;3.00;99.90;;;;;;5045883;28;20218;-67
2022/02/23 02:11:44;;;;;;;15.97;6.17;;;2.90;99.90;;;;;;5051532;28;20296;-66
2022/02/23 02:14:11;;;;;;;14.60;6.37;;;3.00;99.90;;;;;;5053289;28;20230;-67
2022/02/23 02:16:39;;;;;;;15.90;6.70;;;3.00;99.90;;;;;;5050962;28;20297;-67
2022/02/23 02:19:06;;;;;;;12.27;6.10;;;3.00;99.90;;;;;;5064638;28;20688;-67
2022/02/23 02:21:52;;;;;;;16.60;5.17;;;3.10;99.90;;;;;;5044210;28;20229;-67
2022/02/23 02:24:20;;;;;;;15.07;5.67;;;3.00;99.90;;;;;;5051203;28;20276;-67
2022/02/23 02:26:47;;;;;;;16.60;5.67;;;3.00;99.90;;;;;;5053244;28;20210;-66
2022/02/23 02:29:14;;;;;;;10.47;5.70;;;3.00;99.90;;;;;;5046292;28;20296;-67
2022/02/23 02:31:41;;;;;;;14.53;6.07;;;3.00;99.90;;;;;;5052025;28;20218;-68
2022/02/23 02:34:07;;;;;;;15.63;6.57;;;3.00;99.90;;;;;;5051938;28;20249;-67
2022/02/23 02:36:34;;;;;;;12.13;5.53;;;3.10;99.90;;;;;;5052717;28;20206;-66
2022/02/23 02:39:05;;;;;;;14.20;6.10;;;3.10;99.90;;;;;;5055964;28;20219;-67
2022/02/23 02:41:32;;;;;;;15.33;6.50;;;3.10;99.90;;;;;;5063578;28;20213;-67
2022/02/23 02:43:59;;;;;;;15.20;5.33;;;3.20;99.90;;;;;;5063691;28;20206;-67
2022/02/23 02:46:26;;;;;;;16.10;6.10;;;3.10;99.90;;;;;;5063571;28;20217;-67
2022/02/23 02:48:54;;;;;;;14.80;5.73;;;3.20;99.90;;;;;;5056023;28;20644;-67
2022/02/23 02:51:21;;;;;;;14.33;6.00;;;3.20;99.90;;;;;;5045873;28;20587;-67
2022/02/23 02:53:48;;;;;;;17.50;5.93;;;3.20;99.90;;;;;;5051031;28;20257;-68
2022/02/23 02:56:16;;;;;;;18.73;5.47;;;3.20;99.90;;;;;;5052548;28;20209;-66
2022/02/23 02:58:43;;;;;;;11.00;5.57;;;3.30;99.90;;;;;;5043648;28;20220;-68
2022/02/23 03:01:10;;;;;;;11.33;5.00;;;3.30;99.90;;;;;;5059458;28;20204;-67
2022/02/23 03:03:37;;;;;;;15.90;5.93;;;3.30;99.90;;;;;;5054800;28;20216;-65
2022/02/23 03:06:04;;;;;;;12.20;5.33;;;3.30;99.90;;;;;;5049862;28;20297;-67
2022/02/23 03:08:31;;;;;;;11.30;4.20;;;3.40;99.90;;;;;;5040626;28;20206;-67
2022/02/23 03:10:57;;;;;;;11.53;4.67;;;3.40;99.90;;;;;;5038064;28;20670;-66
2022/02/23 03:13:26;;;;;;;13.63;5.43;;;3.50;99.90;;;;;;5047534;28;20214;-67
2022/02/23 03:15:52;;;;;;;12.60;5.37;;;3.40;99.90;;;;;;5049780;28;20209;-67
2022/02/23 03:18:19;;;;;;;13.57;5.03;;;3.50;99.90;;;;;;5051936;28;20214;-67
2022/02/23 03:20:46;;;;;;;11.10;5.13;;;3.50;99.90;;;;;;5051442;28;20249;-68
2022/02/23 03:23:13;;;;;;;13.43;5.03;;;3.50;99.90;;;;;;5051072;28;20730;-67
2022/02/23 03:25:40;;;;;;;14.00;5.50;;;3.50;99.90;;;;;;5049738;28;20288;-66
2022/02/23 03:28:07;;;;;;;15.73;4.80;;;3.60;99.90;;;;;;5052199;28;20206;-67
2022/02/23 03:30:35;;;;;;;11.23;4.93;;;3.60;99.90;;;;;;5048708;28;20582;-67
2022/02/23 03:33:02;;;;;;;11.23;4.53;;;3.60;99.90;;;;;;5062461;28;20237;-68
2022/02/23 03:35:28;;;;;;;9.60;4.50;;;3.60;99.90;;;;;;5055228;28;20312;-67
2022/02/23 03:37:56;;;;;;;10.23;4.23;;;3.60;99.90;;;;;;5051438;28;20217;-68
2022/02/23 03:40:23;;;;;;;12.73;4.90;;;3.70;99.90;;;;;;5051936;28;20238;-67
2022/02/23 03:42:50;;;;;;;14.87;5.33;;;3.70;99.90;;;;;;5060902;28;20206;-66
2022/02/23 03:45:18;;;;;;;12.13;4.57;;;3.70;99.90;;;;;;5047303;28;20575;-67
2022/02/23 03:47:47;;;;;;;15.30;5.00;;;3.70;99.90;;;;;;5055993;28;20220;-67
2022/02/23 03:50:14;;;;;;;12.00;5.27;;;3.70;99.90;;;;;;5049571;28;20213;-67
2022/02/23 03:52:42;;;;;;;14.33;4.83;;;3.70;99.90;;;;;;5051639;28;20210;-67
2022/02/23 03:55:10;;;;;;;8.93;4.07;;;3.70;99.90;;;;;;5052224;28;20222;-67
2022/02/23 03:57:37;;;;;;;14.17;5.03;;;3.70;99.90;;;;;;5053204;28;20205;-66
2022/02/23 04:00:05;;;;;;;12.33;4.43;;;3.70;99.90;;;;;;5054128;28;20202;-67
2022/02/23 04:02:32;;;;;;;9.93;4.13;;;3.70;99.90;;;;;;5055684;28;20209;-67
2022/02/23 04:05:00;;;;;;;16.93;5.20;;;3.70;99.90;;;;;;5054741;28;20619;-67
2022/02/23 04:07:27;;;;;;;12.87;4.57;;;3.70;99.90;;;;;;5055376;28;20713;-67
2022/02/23 04:09:54;;;;;;;10.90;4.50;;;3.80;99.90;;;;;;5053893;28;20336;-67
2022/02/23 04:12:21;;;;;;;13.10;5.50;;;3.70;99.90;;;;;;5054916;28;20285;-68
2022/02/23 04:14:48;;;;;;;9.97;4.00;;;3.70;99.90;;;;;;5045060;28;20232;-67
2022/02/23 04:17:15;;;;;;;13.23;4.97;;;3.70;99.90;;;;;;5050100;28;20698;-66
2022/02/23 04:19:42;;;;;;;12.40;4.20;;;3.80;99.90;;;;;;5054138;28;20662;-67
2022/02/23 04:22:10;;;;;;;12.80;4.50;;;3.80;99.90;;;;;;5043294;28;20302;-67
2022/02/23 04:24:37;;;;;;;12.50;4.43;;;3.80;99.90;;;;;;5048941;28;20574;-67
2022/02/23 04:27:05;;;;;;;15.00;4.97;;;3.70;99.90;;;;;;5050440;28;20214;-69
2022/02/23 04:29:32;;;;;;;10.77;4.83;;;3.80;99.90;;;;;;5064338;28;20566;-67
2022/02/23 04:32:00;;;;;;;11.90;4.27;;;3.70;99.90;;;;;;5050078;28;20205;-67
2022/02/23 04:34:26;;;;;;;11.53;4.87;;;3.70;99.90;;;;;;5043114;28;20316;-67
2022/02/23 04:36:54;;;;;;;18.20;4.37;;;3.80;99.90;;;;;;5057697;28;20229;-67
2022/02/23 04:39:22;;;;;;;9.50;4.77;;;3.70;99.90;;;;;;5048843;28;20365;-67
2022/02/23 04:41:49;;;;;;;14.93;4.67;;;3.80;99.90;;;;;;5064181;28;20206;-67
2022/02/23 04:44:15;;;;;;;11.33;4.80;;;3.80;99.90;;;;;;5053913;28;20289;-66
2022/02/23 04:46:42;;;;;;;12.73;4.63;;;3.70;99.90;;;;;;5053097;28;20264;-67
2022/02/23 04:49:09;;;;;;;13.27;5.00;;;3.70;99.90;;;;;;5052548;28;20300;-67
2022/02/23 04:51:38;;;;;;;12.33;4.30;;;3.70;99.90;;;;;;5053280;28;20301;-67
2022/02/23 04:54:05;;;;;;;11.67;4.73;;;3.70;99.90;;;;;;5054012;28;20659;-66
2022/02/23 04:56:33;;;;;;;9.93;4.40;;;3.80;99.90;;;;;;5057827;28;20209;-67
2022/02/23 04:59:00;;;;;;;11.53;5.27;;;3.80;99.90;;;;;;5041559;28;20302;-66
2022/02/23 05:01:27;;;;;;;12.33;5.23;;;3.70;99.90;;;;;;5053774;28;20206;-67
2022/02/23 05:03:53;;;;;;;13.37;5.73;;;3.70;99.90;;;;;;5053738;28;20596;-66
2022/02/23 05:06:20;;;;;;;9.87;4.70;;;3.70;99.90;;;;;;5053390;28;20198;-66
2022/02/23 05:08:47;;;;;;;12.10;3.87;;;3.70;99.90;;;;;;5051118;28;20663;-67
2022/02/23 05:11:14;;;;;;;13.13;4.90;;;3.70;99.90;;;;;;5044521;28;20210;-67
2022/02/23 05:13:42;;;;;;;11.93;4.60;;;3.70;99.90;;;;;;5053921;28;20199;-66
2022/02/23 05:16:09;;;;;;;11.13;4.33;;;3.60;99.90;;;;;;5053950;28;20320;-65
2022/02/23 05:18:36;;;;;;;13.70;4.57;;;3.60;99.90;;;;;;5038933;28;20233;-67
2022/02/23 05:21:03;;;;;;;11.27;4.67;;;3.60;99.90;;;;;;5050474;28;20320;-66
2022/02/23 05:23:30;;;;;;;10.67;4.80;;;3.60;99.90;;;;;;5053396;28;20206;-66
2022/02/23 05:25:57;;;;;;;11.17;5.37;;;3.60;99.90;;;;;;5052086;28;20576;-66
2022/02/23 05:28:24;;;;;;;12.67;4.83;;;3.60;99.90;;;;;;5063227;28;20240;-68
2022/02/23 05:30:53;;;;;;;12.97;5.50;;;3.60;99.90;;;;;;5060051;28;20214;-67
2022/02/23 05:33:20;;;;;;;13.13;4.67;;;3.60;99.90;;;;;;5049851;28;20289;-66
2022/02/23 05:35:47;;;;;;;12.07;5.23;;;3.60;99.90;;;;;;5054778;28;20256;-67
2022/02/23 05:38:13;;;;;;;10.50;5.13;;;3.60;99.90;;;;;;5048107;28;20232;-67
2022/02/23 05:40:40;;;;;;;11.27;4.93;;;3.60;99.90;;;;;;5056735;28;20243;-67
2022/02/23 05:43:07;;;;;;;11.50;5.53;;;3.60;99.90;;;;;;5064913;28;20303;-66
2022/02/23 05:45:34;;;;;;;12.03;5.13;;;3.60;99.90;;;;;;5068788;28;20702;-66
2022/02/23 05:48:02;;;;;;;14.27;6.13;;;3.60;99.90;;;;;;5044324;28;20561;-67
2022/02/23 05:50:29;;;;;;;10.40;4.77;;;3.60;99.90;;;;;;5050117;28;20228;-68
2022/02/23 05:52:56;;;;;;;10.10;5.00;;;3.60;99.90;;;;;;5052364;28;20325;-67
2022/02/23 05:55:23;;;;;;;14.33;5.03;;;3.60;99.90;;;;;;5046468;28;20233;-67
2022/02/23 05:57:50;;;;;;;12.43;5.00;;;3.60;99.90;;;;;;5051337;28;20206;-67
2022/02/23 06:00:17;;;;;;;13.20;5.20;;;3.60;99.90;;;;;;5049843;28;20210;-67
2022/02/23 06:02:44;;;;;;;13.33;4.93;;;3.70;99.90;;;;;;5048151;28;20650;-66
2022/02/23 06:05:12;;;;;;;8.97;4.60;;;3.70;99.90;;;;;;5051960;28;20202;-68
2022/02/23 06:07:39;;;;;;;8.67;4.97;;;3.70;99.90;;;;;;5052221;28;20562;-66
2022/02/23 06:10:07;;;;;;;12.37;5.40;;;3.70;99.90;;;;;;5054101;28;20214;-66
2022/02/23 06:12:34;;;;;;;9.17;4.93;;;3.70;99.90;;;;;;5051744;28;20206;-66
2022/02/23 06:15:01;;;;;;;9.83;4.77;;;3.80;99.90;;;;;;5051475;28;20758;-65
2022/02/23 06:17:28;;;;;;;7.70;4.43;;;3.80;99.90;;;;;;5047311;28;20208;-67
2022/02/23 06:19:55;;;;;;;10.47;3.97;;;3.90;99.90;;;;;;5049501;28;20210;-67
2022/02/23 06:22:23;;;;;;;10.37;4.93;;;3.90;99.90;;;;;;5043290;28;20222;-67
2022/02/23 06:24:50;;;;;;;7.40;4.87;;;3.90;99.90;;;;;;5045607;28;20352;-67
2022/02/23 06:27:18;;;;;;;9.50;6.00;;;4.00;99.90;;;;;;5047041;28;20220;-68
2022/02/23 06:29:44;;;;;;;9.50;5.10;;;4.00;99.90;;;;;;5052871;28;20207;-68
2022/02/23 06:32:12;;;;;;;9.43;5.00;;;4.10;99.90;;;;;;5052191;28;20230;-67
2022/02/23 06:34:39;;;;;;;8.37;5.30;;;4.10;99.90;;;;;;5052863;28;20578;-67
2022/02/23 06:37:06;;;;;;;11.20;5.63;;;4.20;99.90;;;;;;5054850;28;20214;-67
2022/02/23 06:39:37;;;;;;;12.97;5.70;;;4.20;99.90;;;;;;5054466;28;20237;-67
2022/02/23 06:42:05;;;;;;;7.83;4.87;;;4.20;99.90;;;;;;5053619;28;20205;-66
2022/02/23 06:44:33;;;;;;;11.17;4.63;;;4.30;99.90;;;;;;5052269;28;20222;-67
2022/02/23 06:47:01;;;;;;;9.67;5.13;;;4.30;99.90;;;;;;5051103;28;20296;-71
2022/02/23 06:49:28;;;;;;;7.73;4.77;;;4.40;99.90;;;;;;5047962;28;20213;-71
2022/02/23 06:51:58;;;;;;;11.93;5.27;;;4.40;99.90;;;;;;5049834;28;20303;-70
2022/02/23 06:54:26;;;;;;;10.97;5.03;;;4.40;99.90;;;;;;5045450;28;20202;-71
2022/02/23 06:56:55;;;;;;;5.37;4.10;;;4.50;99.90;;;;;;5043401;28;20221;-70
2022/02/23 06:59:22;;;;;;;8.33;4.57;;;4.50;99.90;;;;;;5044920;28;20198;-69
2022/02/23 07:01:49;;;;;;;8.13;5.10;;;4.50;99.90;;;;;;5051668;28;20240;-70
2022/02/23 07:04:16;;;;;;;8.40;5.00;;;4.60;99.90;;;;;;5046380;28;20216;-69
2022/02/23 07:06:43;;;;;;;5.77;4.00;;;4.60;99.90;;;;;;5051681;28;20201;-74
2022/02/23 07:09:10;;;;;;;7.30;4.50;;;4.70;99.90;;;;;;5053836;28;20202;-75
2022/02/23 07:11:38;;;;;;;9.37;4.43;;;4.70;99.90;;;;;;5051582;28;20202;-69
2022/02/23 07:14:08;;;;;;;7.23;4.90;;;4.70;99.90;;;;;;5048470;28;20723;-69
2022/02/23 07:16:35;;;;;;;9.93;4.13;;;4.70;99.90;;;;;;5052818;28;20511;-69
2022/02/23 07:19:02;;;;;;;10.10;3.77;;;4.80;99.90;;;;;;5056644;28;20289;-69
2022/02/23 07:21:29;;;;;;;5.90;3.60;;;4.80;99.90;;;;;;5051716;28;20339;-68
2022/02/23 07:23:56;;;;;;;4.63;3.00;;;4.90;99.90;;;;;;5058486;28;20236;-69
2022/02/23 07:26:23;;;;;;;6.73;3.53;;;4.90;99.90;;;;;;5054083;28;20194;-68
2022/02/23 07:28:50;;;;;;;6.73;3.50;;;4.90;99.90;;;;;;5057312;28;20298;-71
2022/02/23 07:31:18;;;;;;;5.13;3.37;;;5.00;99.90;;;;;;5055375;28;20221;-71
2022/02/23 07:33:47;;;;;;;6.88;3.92;;;5.00;99.90;;;;;;5052624;28;20491;-69
2022/02/23 07:36:15;;;;;;;4.00;3.03;;;5.00;99.90;;;;;;5058864;28;20589;-70
2022/02/23 07:38:42;;;;;;;4.60;2.40;;;5.00;99.90;;;;;;5062710;28;20293;-70
2022/02/23 07:41:11;;;;;;;5.50;2.83;;;5.10;99.90;;;;;;5058427;28;20580;-68
2022/02/23 07:43:37;;;;;;;8.23;2.77;;;5.10;99.90;;;;;;5052946;28;20565;-68
2022/02/23 07:46:05;;;;;;;4.43;2.97;;;5.10;99.90;;;;;;5055547;28;20292;-70
2022/02/23 07:48:37;;;;;;;4.80;2.67;;;5.10;99.90;;;;;;5061503;28;20205;-68
2022/02/23 07:51:04;;;;;;;6.47;2.57;;;5.20;99.90;;;;;;5061347;28;20657;-69
2022/02/23 07:53:31;;;;;;;6.43;3.03;;;5.20;99.90;;;;;;5066451;28;20204;-71
2022/02/23 07:55:58;;;;;;;7.13;2.70;;;5.20;99.90;;;;;;5051344;28;20312;-73
2022/02/23 07:58:25;;;;;;;6.67;2.77;;;5.20;99.90;;;;;;5060881;28;20260;-74
2022/02/23 08:00:52;;;;;;;5.97;2.97;;;5.30;99.90;;;;;;5052955;28;20285;-71
2022/02/23 08:03:19;;;;;;;7.23;2.40;;;5.30;99.90;;;;;;5057260;28;20293;-74
2022/02/23 08:05:48;;;;;;;5.63;2.70;;;5.40;99.90;;;;;;5057019;28;20204;-72
2022/02/23 08:08:16;;;;;;;5.67;2.77;;;5.40;99.90;;;;;;5056024;28;20339;-72
2022/02/23 08:10:43;;;;;;;4.47;2.60;;;5.50;99.90;;;;;;5055556;28;20336;-72
2022/02/23 08:13:11;;;;;;;9.20;2.83;;;5.50;99.90;;;;;;5055670;28;20202;-72
2022/02/23 08:21:12;;;;;;;10.67;2.70;;;5.60;99.90;;;;;;5052998;28;20287;-74
2022/02/23 08:23:41;;;;;;;5.30;2.30;;;5.70;99.90;;;;;;5058986;28;20235;-72
2022/02/23 08:26:08;;;;;;;5.77;2.50;;;5.90;99.90;;;;;;5054921;28;20293;-75
2022/02/23 08:28:35;;;;;;;8.00;2.47;;;6.00;99.90;;;;;;5055991;28;20264;-74
2022/02/23 08:31:03;;;;;;;7.20;2.10;;;6.20;99.90;;;;;;5054157;28;20271;-74
2022/02/23 08:33:30;;;;;;;10.90;3.00;;;6.30;99.90;;;;;;5055360;28;20214;-73
2022/02/23 08:35:57;;;;;;;9.23;2.43;;;6.40;99.90;;;;;;5057652;28;20714;-74
2022/02/23 08:38:26;;;;;;;10.30;2.53;;;6.40;99.90;;;;;;5048098;28;20209;-74
2022/02/23 08:40:57;;;;;;;7.60;2.17;;;6.50;99.90;;;;;;5054133;28;20257;-74
2022/02/23 08:43:23;;;;;;;6.93;2.00;;;6.60;99.90;;;;;;5060269;28;20208;-74
2022/02/23 08:45:52;;;;;;;8.30;2.20;;;6.60;99.90;;;;;;5058071;28;20620;-72
2022/02/23 08:48:19;;;;;;;9.87;3.17;;;6.60;99.90;;;;;;5055792;28;20241;-73
2022/02/23 08:50:45;;;;;;;6.80;2.33;;;6.70;99.90;;;;;;5059506;28;20240;-73
2022/02/23 08:53:12;;;;;;;9.50;2.77;;;6.70;99.90;;;;;;5052890;28;20217;-71
2022/02/23 08:55:40;;;;;;;12.07;2.90;;;6.80;99.90;;;;;;5043947;28;20226;-70
2022/02/23 08:58:11;;;;;;;10.87;2.70;;;6.80;99.90;;;;;;5056097;28;20214;-71
2022/02/23 09:00:38;;;;;;;7.60;2.40;;;6.90;99.90;;;;;;5051414;28;20256;-70
2022/02/23 09:03:05;;;;;;;9.53;2.90;;;7.00;99.90;;;;;;5058237;28;20212;-70
2022/02/23 09:05:33;;;;;;;9.20;2.93;;;7.00;99.90;;;;;;5055948;28;20260;-71
2022/02/23 09:08:00;;;;;;;9.27;3.03;;;7.10;99.90;;;;;;5055160;28;20210;-73
2022/02/23 09:10:27;;;;;;;6.73;2.40;;;7.10;99.90;;;;;;5051856;28;20293;-70
2022/02/23 09:12:55;;;;;;;8.63;2.70;;;7.30;99.90;;;;;;5049421;28;20304;-71
2022/02/23 09:15:22;;;;;;;11.67;3.40;;;7.60;99.90;;;;;;5049207;28;20278;-71
2022/02/23 09:17:49;;;;;;;8.33;2.77;;;8.10;99.90;;;;;;5054030;28;20207;-71
2022/02/23 09:20:16;;;;;;;12.00;3.60;;;8.60;99.90;;;;;;5046357;28;20698;-71
2022/02/23 09:22:43;;;;;;;7.87;3.27;;;8.80;99.90;;;;;;5058511;28;20207;-71
2022/02/23 09:25:09;;;;;;;7.37;3.10;;;8.80;99.90;;;;;;5057019;28;20202;-70
2022/02/23 09:27:38;;;;;;;7.77;3.30;;;8.80;99.90;;;;;;5046439;28;20289;-75
2022/02/23 09:30:11;;;;;;;6.50;2.60;;;8.70;99.90;;;;;;5055368;28;20214;-72
2022/02/23 09:32:38;;;;;;;8.43;2.83;;;8.60;99.90;;;;;;5049161;28;20293;-76
2022/02/23 09:35:06;;;;;;;10.13;2.97;;;8.40;99.90;;;;;;5056221;28;20650;-76
2022/02/23 09:37:34;;;;;;;6.97;3.30;;;8.40;99.90;;;;;;5061710;28;20275;-76
2022/02/23 09:40:01;;;;;;;11.17;3.20;;;9.00;99.90;;;;;;5041971;28;20273;-75
2022/02/23 09:42:29;;;;;;;7.37;3.23;;;9.30;99.90;;;;;;5060211;28;20228;-71
2022/02/23 09:44:59;;;;;;;10.93;3.58;;;9.40;99.90;;;;;;5054549;28;20542;-72
2022/02/23 09:47:32;;;;;;;15.68;5.30;;;9.30;99.90;;;;;;5051992;28;20459;-72
2022/02/23 09:49:59;;;;;;;8.87;3.97;;;9.20;99.90;;;;;;5056754;28;20202;-72
2022/02/23 09:52:26;;;;;;;11.90;3.90;;;9.00;99.90;;;;;;5055276;28;20236;-71
2022/02/23 09:54:57;;;;;;;12.13;4.32;;;8.70;99.90;;;;;;5059796;28;20438;-73
2022/02/23 09:57:24;;;;;;;12.67;3.70;;;8.50;99.90;;;;;;5057067;28;20253;-70
2022/02/23 09:59:51;;;;;;;12.63;4.38;;;8.30;99.90;;;;;;5063077;28;20444;-73
2022/02/23 10:02:18;;;;;;;8.57;3.37;;;8.20;99.90;;;;;;5052818;28;20294;-71
2022/02/23 10:04:47;;;;;;;11.53;3.60;;;8.10;99.90;;;;;;5053324;28;20234;-72
2022/02/23 10:07:14;;;;;;;12.30;3.43;;;8.00;99.90;;;;;;5060824;28;20513;-70
2022/02/23 10:09:43;;;;;;;10.23;3.50;;;8.00;99.90;;;;;;5053156;28;20210;-72
2022/02/23 10:19:06;;;;;;;13.53;3.30;;;8.00;99.90;;;;;;5055147;28;20671;-71
2022/02/23 10:21:49;;;;;;;11.83;3.70;;;7.90;99.90;;;;;;5047079;28;20691;-70
2022/02/23 10:24:22;;;;;;;6.70;2.73;;;7.90;99.90;;;;;;5052005;28;20241;-71
2022/02/23 10:27:07;;;;;;;9.63;3.33;;;7.80;99.90;;;;;;5056042;28;20202;-73
2022/02/23 10:29:36;;;;;;;9.80;2.97;;;7.70;99.90;;;;;;5055217;28;20240;-71
2022/02/23 10:32:09;;;;;;;10.33;2.83;;;7.70;99.90;;;;;;5051639;28;20294;-69
2022/02/23 10:34:41;;;;;;;8.87;3.60;;;7.80;99.90;;;;;;5049592;28;20202;-73
2022/02/23 10:37:10;;;;;;;9.97;3.00;;;7.90;99.90;;;;;;5053767;28;20275;-73
2022/02/23 10:39:39;;;;;;;9.50;3.63;;;8.00;99.90;;;;;;5052788;28;20230;-72
2022/02/23 10:42:09;;;;;;;11.13;3.20;;;7.90;99.90;;;;;;5044868;28;20670;-72
2022/02/23 10:44:40;;;;;;;12.97;4.10;;;7.90;99.90;;;;;;5053467;28;20638;-72
2022/02/23 10:47:08;;;;;;;9.07;3.77;;;7.80;99.90;;;;;;5055073;28;20200;-72
2022/02/23 10:49:35;;;;;;;7.23;2.70;;;7.80;99.90;;;;;;5052748;28;20554;-69
2022/02/23 10:52:06;;;;;;;9.70;2.70;;;7.60;99.90;;;;;;5053753;28;20206;-74
2022/02/23 10:54:36;;;;;;;11.23;3.27;;;7.50;99.90;;;;;;5050172;28;20204;-72
2022/02/23 10:57:20;;;;;;;8.87;2.80;;;7.40;99.90;;;;;;5052212;28;20304;-71
2022/02/23 10:59:47;;;;;;;9.27;3.10;;;7.20;99.90;;;;;;5045795;28;20214;-71
2022/02/23 11:02:15;;;;;;;12.53;2.97;;;7.10;99.90;;;;;;5056426;28;20212;-71
2022/02/23 11:04:42;;;;;;;7.70;3.70;;;7.00;99.90;;;;;;5055786;28;20630;-73
2022/02/23 11:07:10;;;;;;;10.80;3.20;;;7.10;99.90;;;;;;5041369;28;20214;-71
2022/02/23 11:09:38;;;;;;;8.10;3.53;;;7.30;99.90;;;;;;5054362;28;20214;-71
2022/02/23 11:12:07;;;;;;;13.60;3.13;;;7.90;99.90;;;;;;5052684;28;20263;-72
2022/02/23 11:14:36;;;;;;;15.43;4.17;;;8.80;99.90;;;;;;5052828;28;20194;-72
2022/02/23 11:17:04;;;;;;;9.80;3.70;;;9.60;99.90;;;;;;5054864;28;20237;-73
2022/02/23 11:19:35;;;;;;;6.63;2.90;;;9.70;99.90;;;;;;5053446;28;20720;-72
2022/02/23 11:22:03;;;;;;;8.63;3.10;;;9.50;99.90;;;;;;5045528;28;20257;-72
2022/02/23 11:24:30;;;;;;;6.50;3.37;;;9.20;99.90;;;;;;5063742;28;20225;-72
2022/02/23 11:27:04;;;;;;;8.77;2.80;;;8.90;99.90;;;;;;5052513;28;20209;-73
2022/02/23 11:29:39;;;;;;;9.60;2.80;;;8.60;99.90;;;;;;5060936;28;20630;-74
2022/02/23 11:32:08;;;;;;;9.33;3.33;;;8.40;99.90;;;;;;5048120;28;20205;-73
2022/02/23 11:34:39;;;;;;;5.77;2.43;;;8.20;99.90;;;;;;5051889;28;20209;-72
2022/02/23 11:37:11;;;;;;;6.47;2.63;;;8.10;99.90;;;;;;5048453;28;20577;-71
2022/02/23 11:39:39;;;;;;;7.77;2.80;;;8.00;99.90;;;;;;5051094;28;20237;-72
2022/02/23 11:42:10;;;;;;;6.13;2.50;;;8.00;99.90;;;;;;5056011;28;20201;-73
2022/02/23 11:44:46;;;;;;;8.10;2.33;;;7.90;99.90;;;;;;5062127;28;20218;-72
2022/02/23 11:47:16;;;;;;;13.53;2.63;;;7.80;99.90;;;;;;5050663;28;20666;-73
2022/02/23 11:49:53;;;;;;;8.73;2.90;;;7.80;99.90;;;;;;5047680;28;20198;-74
2022/02/23 11:52:22;;;;;;;9.40;2.90;;;7.80;99.90;;;;;;5051586;28;20209;-73
2022/02/23 11:54:57;;;;;;;8.70;2.77;;;7.70;99.90;;;;;;5052436;28;20237;-72
2022/02/23 11:57:53;;;;;;;8.70;2.63;;;7.70;99.90;;;;;;5051646;28;20233;-71
2022/02/23 12:00:58;;;;;;;5.50;2.53;;;7.70;99.90;;;;;;5049323;28;20524;-72
2022/02/23 12:03:28;;;;;;;9.17;2.70;;;7.60;99.90;;;;;;5051595;28;20245;-71
2022/02/23 12:06:00;;;;;;;9.87;2.53;;;7.60;99.90;;;;;;5051276;28;20204;-72
2022/02/23 12:08:42;;;;;;;6.27;2.47;;;7.50;99.90;;;;;;5040075;28;20203;-71
2022/02/23 12:11:41;;;;;;;8.43;2.57;;;7.40;99.90;;;;;;5039098;28;20301;-72
2022/02/23 12:14:08;;;;;;;8.43;2.80;;;7.30;99.90;;;;;;5053201;28;20288;-72
2022/02/23 12:16:50;;;;;;;12.23;3.03;;;7.20;99.90;;;;;;5053379;28;20284;-72
2022/02/23 12:19:38;;;;;;;7.63;2.07;;;7.30;99.90;;;;;;5056646;28;20225;-71
2022/02/23 12:22:05;;;;;;;8.10;2.60;;;7.40;99.90;;;;;;5048301;28;20279;-73
2022/02/23 12:24:43;;;;;;;7.07;2.23;;;7.80;99.90;;;;;;5053964;28;20209;-74
2022/02/23 12:27:11;;;;;;;7.60;2.40;;;8.40;99.90;;;;;;5051742;28;20225;-72
2022/02/23 12:29:38;;;;;;;9.97;2.37;;;8.90;99.90;;;;;;5056065;28;20289;-70
2022/02/23 12:32:09;;;;;;;7.90;2.30;;;9.60;99.90;;;;;;5055523;28;20659;-71
2022/02/23 12:34:38;;;;;;;8.33;2.87;;;10.10;99.90;;;;;;5054478;28;20210;-72
2022/02/23 12:37:06;;;;;;;9.97;3.03;;;10.90;99.90;;;;;;5057543;28;20263;-72
2022/02/23 12:39:34;;;;;;;9.30;3.73;;;11.60;99.90;;;;;;5062630;28;20290;-71
2022/02/23 12:42:04;;;;;;;7.90;2.70;;;11.60;99.90;;;;;;5065755;28;20206;-69
2022/02/23 12:44:34;;;;;;;5.93;2.50;;;11.20;99.90;;;;;;5063032;28;20209;-70
2022/02/23 12:47:04;;;;;;;8.07;2.77;;;10.80;99.90;;;;;;5062070;28;20685;-71
2022/02/23 12:49:33;;;;;;;9.17;2.50;;;10.40;99.90;;;;;;5052837;28;20358;-70
2022/02/23 12:52:01;;;;;;;16.33;3.03;;;10.00;99.90;;;;;;5055872;28;20526;-70
2022/02/23 12:54:29;;;;;;;9.57;2.67;;;9.60;99.90;;;;;;5057050;28;20213;-71
2022/02/23 12:56:58;;;;;;;5.03;2.20;;;9.40;99.90;;;;;;5058946;28;20229;-70
2022/02/23 12:59:26;;;;;;;7.40;2.40;;;9.20;99.90;;;;;;5058504;28;20298;-70
2022/02/23 13:01:54;;;;;;;6.93;2.40;;;9.00;99.90;;;;;;5059097;28;20245;-71
2022/02/23 13:04:28;;;;;;;9.37;3.07;;;8.80;99.90;;;;;;5058785;28;20647;-71
2022/02/23 13:07:01;;;;;;;7.67;2.70;;;8.70;99.90;;;;;;5056130;28;20257;-70
2022/02/23 13:09:34;;;;;;;7.30;2.77;;;8.40;99.90;;;;;;5066050;28;20205;-70